sensor_id;sensor_type;location;lat;lon;timestamp;P1;durP1;ratioP1;P2;durP2;ratioP2
52952;SDS011;38815;55.932;-3.232;2022-08-01T00:00:10;8.75;;;1.95;;
52952;SDS011;38815;55.932;-3.232;2022-08-01T00:02:36;8.38;;;2.05;;
52952;SDS011;38815;55.932;-3.232;2022-08-01T00:05:03;6.68;;;1.52;;
52952;SDS011;38815;55.932;-3.232;2022-08-01T00:07:30;6.25;;;1.80;;
52952;SDS011;38815;55.932;-3.232;2022-08-01T00:09:56;10.50;;;1.75;;
52952;SDS011;38815;55.932;-3.232;2022-08-01T00:12:22;6.70;;;1.67;;
52952;SDS011;38815;55.932;-3.232;2022-08-01T00:14:47;7.93;;;1.88;;
52952;SDS011;38815;55.932;-3.232;2022-08-01T00:17:12;8.43;;;1.75;;
52952;SDS011;38815;55.932;-3.232;2022-08-01T00:19:38;7.95;;;1.80;;
52952;SDS011;38815;55.932;-3.232;2022-08-01T00:22:03;5.40;;;1.38;;
52952;SDS011;38815;55.932;-3.232;2022-08-01T00:24:29;8.52;;;1.67;;
52952;SDS011;38815;55.932;-3.232;2022-08-01T00:26:54;8.65;;;1.70;;
52952;SDS011;38815;55.932;-3.232;2022-08-01T00:29:19;6.65;;;1.63;;
52952;SDS011;38815;55.932;-3.232;2022-08-01T00:31:45;5.88;;;1.40;;
52952;SDS011;38815;55.932;-3.232;2022-08-01T00:34:10;10.50;;;1.70;;
52952;SDS011;38815;55.932;-3.232;2022-08-01T00:36:35;8.25;;;1.85;;
52952;SDS011;38815;55.932;-3.232;2022-08-01T00:39:01;9.63;;;1.42;;
52952;SDS011;38815;55.932;-3.232;2022-08-01T00:41:26;5.63;;;1.33;;
52952;SDS011;38815;55.932;-3.232;2022-08-01T00:43:52;13.05;;;1.60;;
52952;SDS011;38815;55.932;-3.232;2022-08-01T00:46:21;8.90;;;1.65;;
52952;SDS011;38815;55.932;-3.232;2022-08-01T00:48:46;8.88;;;1.33;;
52952;SDS011;38815;55.932;-3.232;2022-08-01T00:51:12;7.13;;;1.40;;
52952;SDS011;38815;55.932;-3.232;2022-08-01T00:53:38;6.65;;;1.90;;
52952;SDS011;38815;55.932;-3.232;2022-08-01T00:56:04;6.40;;;1.38;;
52952;SDS011;38815;55.932;-3.232;2022-08-01T00:58:29;10.50;;;1.88;;
52952;SDS011;38815;55.932;-3.232;2022-08-01T01:00:57;10.93;;;1.88;;
52952;SDS011;38815;55.932;-3.232;2022-08-01T01:03:23;15.40;;;1.73;;
52952;SDS011;38815;55.932;-3.232;2022-08-01T01:08:41;5.90;;;1.50;;
52952;SDS011;38815;55.932;-3.232;2022-08-01T01:11:13;7.40;;;1.52;;
52952;SDS011;38815;55.932;-3.232;2022-08-01T01:13:52;8.25;;;1.55;;
52952;SDS011;38815;55.932;-3.232;2022-08-01T01:16:21;7.05;;;1.70;;
52952;SDS011;38815;55.932;-3.232;2022-08-01T01:18:49;11.48;;;1.55;;
52952;SDS011;38815;55.932;-3.232;2022-08-01T01:26:57;8.32;;;1.65;;
52952;SDS011;38815;55.932;-3.232;2022-08-01T01:29:52;8.38;;;1.52;;
52952;SDS011;38815;55.932;-3.232;2022-08-01T01:35:15;5.40;;;1.50;;
52952;SDS011;38815;55.932;-3.232;2022-08-01T01:37:49;7.55;;;1.35;;
52952;SDS011;38815;55.932;-3.232;2022-08-01T01:40:23;9.85;;;1.38;;
52952;SDS011;38815;55.932;-3.232;2022-08-01T01:42:49;7.63;;;1.70;;
52952;SDS011;38815;55.932;-3.232;2022-08-01T01:45:16;7.57;;;1.83;;
52952;SDS011;38815;55.932;-3.232;2022-08-01T01:47:43;5.95;;;1.50;;
52952;SDS011;38815;55.932;-3.232;2022-08-01T01:50:11;8.07;;;1.52;;
52952;SDS011;38815;55.932;-3.232;2022-08-01T01:52:37;9.40;;;1.73;;
52952;SDS011;38815;55.932;-3.232;2022-08-01T01:55:05;9.55;;;1.40;;
52952;SDS011;38815;55.932;-3.232;2022-08-01T01:57:33;9.25;;;1.35;;
52952;SDS011;38815;55.932;-3.232;2022-08-01T02:00:04;8.18;;;1.67;;
52952;SDS011;38815;55.932;-3.232;2022-08-01T02:02:31;8.80;;;1.63;;
52952;SDS011;38815;55.932;-3.232;2022-08-01T02:04:58;7.25;;;1.58;;
52952;SDS011;38815;55.932;-3.232;2022-08-01T02:07:25;9.15;;;1.50;;
52952;SDS011;38815;55.932;-3.232;2022-08-01T02:09:52;6.38;;;1.52;;
52952;SDS011;38815;55.932;-3.232;2022-08-01T02:12:19;6.18;;;1.35;;
52952;SDS011;38815;55.932;-3.232;2022-08-01T02:14:46;9.45;;;1.50;;
52952;SDS011;38815;55.932;-3.232;2022-08-01T02:17:18;6.63;;;1.80;;
52952;SDS011;38815;55.932;-3.232;2022-08-01T02:19:46;7.43;;;1.50;;
52952;SDS011;38815;55.932;-3.232;2022-08-01T02:22:14;6.50;;;1.40;;
52952;SDS011;38815;55.932;-3.232;2022-08-01T02:28:01;8.07;;;1.67;;
52952;SDS011;38815;55.932;-3.232;2022-08-01T02:30:09;6.20;;;1.35;;
52952;SDS011;38815;55.932;-3.232;2022-08-01T02:32:53;11.60;;;1.60;;
52952;SDS011;38815;55.932;-3.232;2022-08-01T02:35:27;7.65;;;1.40;;
52952;SDS011;38815;55.932;-3.232;2022-08-01T02:37:55;9.88;;;1.92;;
52952;SDS011;38815;55.932;-3.232;2022-08-01T02:40:22;7.03;;;1.75;;
52952;SDS011;38815;55.932;-3.232;2022-08-01T02:42:52;5.85;;;1.38;;
52952;SDS011;38815;55.932;-3.232;2022-08-01T02:45:22;9.93;;;1.35;;
52952;SDS011;38815;55.932;-3.232;2022-08-01T02:47:50;7.72;;;1.55;;
52952;SDS011;38815;55.932;-3.232;2022-08-01T02:50:18;9.50;;;1.23;;
52952;SDS011;38815;55.932;-3.232;2022-08-01T02:52:46;7.30;;;1.55;;
52952;SDS011;38815;55.932;-3.232;2022-08-01T02:55:15;7.75;;;1.40;;
52952;SDS011;38815;55.932;-3.232;2022-08-01T02:57:44;6.75;;;1.38;;
52952;SDS011;38815;55.932;-3.232;2022-08-01T03:00:12;7.05;;;1.55;;
52952;SDS011;38815;55.932;-3.232;2022-08-01T03:02:39;8.00;;;1.42;;
52952;SDS011;38815;55.932;-3.232;2022-08-01T03:05:05;6.30;;;1.50;;
52952;SDS011;38815;55.932;-3.232;2022-08-01T03:07:33;8.77;;;1.40;;
52952;SDS011;38815;55.932;-3.232;2022-08-01T03:09:59;7.15;;;1.42;;
52952;SDS011;38815;55.932;-3.232;2022-08-01T03:12:27;4.78;;;1.40;;
52952;SDS011;38815;55.932;-3.232;2022-08-01T03:14:55;7.65;;;1.83;;
52952;SDS011;38815;55.932;-3.232;2022-08-01T03:17:23;7.70;;;1.80;;
52952;SDS011;38815;55.932;-3.232;2022-08-01T03:19:52;10.10;;;1.75;;
52952;SDS011;38815;55.932;-3.232;2022-08-01T03:22:20;7.25;;;1.77;;
52952;SDS011;38815;55.932;-3.232;2022-08-01T03:24:49;5.93;;;1.50;;
52952;SDS011;38815;55.932;-3.232;2022-08-01T03:27:16;7.07;;;1.50;;
52952;SDS011;38815;55.932;-3.232;2022-08-01T03:29:44;9.15;;;1.77;;
52952;SDS011;38815;55.932;-3.232;2022-08-01T03:32:11;6.18;;;1.40;;
52952;SDS011;38815;55.932;-3.232;2022-08-01T03:34:38;9.82;;;1.63;;
52952;SDS011;38815;55.932;-3.232;2022-08-01T03:37:08;8.32;;;1.55;;
52952;SDS011;38815;55.932;-3.232;2022-08-01T03:42:28;7.57;;;1.45;;
52952;SDS011;38815;55.932;-3.232;2022-08-01T03:44:58;8.00;;;1.52;;
52952;SDS011;38815;55.932;-3.232;2022-08-01T03:47:30;4.68;;;1.38;;
52952;SDS011;38815;55.932;-3.232;2022-08-01T03:50:01;10.27;;;1.50;;
52952;SDS011;38815;55.932;-3.232;2022-08-01T03:52:30;9.25;;;1.77;;
52952;SDS011;38815;55.932;-3.232;2022-08-01T03:54:58;7.55;;;1.40;;
52952;SDS011;38815;55.932;-3.232;2022-08-01T03:57:27;8.13;;;1.58;;
52952;SDS011;38815;55.932;-3.232;2022-08-01T03:59:53;5.70;;;1.70;;
52952;SDS011;38815;55.932;-3.232;2022-08-01T04:02:21;7.35;;;1.75;;
52952;SDS011;38815;55.932;-3.232;2022-08-01T04:04:47;9.23;;;1.58;;
52952;SDS011;38815;55.932;-3.232;2022-08-01T04:07:23;11.68;;;1.65;;
52952;SDS011;38815;55.932;-3.232;2022-08-01T04:09:50;6.60;;;1.42;;
52952;SDS011;38815;55.932;-3.232;2022-08-01T04:12:16;9.73;;;1.55;;
52952;SDS011;38815;55.932;-3.232;2022-08-01T04:14:42;5.60;;;1.40;;
52952;SDS011;38815;55.932;-3.232;2022-08-01T04:17:08;4.18;;;1.13;;
52952;SDS011;38815;55.932;-3.232;2022-08-01T04:19:33;9.18;;;1.40;;
52952;SDS011;38815;55.932;-3.232;2022-08-01T04:21:59;6.95;;;1.30;;
52952;SDS011;38815;55.932;-3.232;2022-08-01T04:24:25;5.97;;;1.10;;
52952;SDS011;38815;55.932;-3.232;2022-08-01T04:26:55;7.93;;;1.20;;
52952;SDS011;38815;55.932;-3.232;2022-08-01T04:29:23;6.93;;;1.50;;
52952;SDS011;38815;55.932;-3.232;2022-08-01T04:31:50;6.85;;;1.45;;
52952;SDS011;38815;55.932;-3.232;2022-08-01T04:34:20;5.00;;;1.30;;
52952;SDS011;38815;55.932;-3.232;2022-08-01T04:36:48;9.48;;;1.60;;
52952;SDS011;38815;55.932;-3.232;2022-08-01T04:39:16;5.10;;;1.40;;
52952;SDS011;38815;55.932;-3.232;2022-08-01T04:41:44;9.63;;;1.42;;
52952;SDS011;38815;55.932;-3.232;2022-08-01T04:44:11;4.90;;;1.23;;
52952;SDS011;38815;55.932;-3.232;2022-08-01T04:46:38;7.60;;;1.60;;
52952;SDS011;38815;55.932;-3.232;2022-08-01T04:49:05;5.88;;;1.38;;
52952;SDS011;38815;55.932;-3.232;2022-08-01T04:51:34;7.45;;;1.60;;
52952;SDS011;38815;55.932;-3.232;2022-08-01T04:54:00;5.75;;;1.20;;
52952;SDS011;38815;55.932;-3.232;2022-08-01T04:56:26;7.32;;;1.30;;
52952;SDS011;38815;55.932;-3.232;2022-08-01T04:58:52;8.35;;;1.52;;
52952;SDS011;38815;55.932;-3.232;2022-08-01T05:01:37;6.93;;;1.40;;
52952;SDS011;38815;55.932;-3.232;2022-08-01T05:04:03;6.15;;;1.40;;
52952;SDS011;38815;55.932;-3.232;2022-08-01T05:06:28;5.15;;;1.23;;
52952;SDS011;38815;55.932;-3.232;2022-08-01T05:08:54;8.82;;;1.65;;
52952;SDS011;38815;55.932;-3.232;2022-08-01T05:11:19;8.32;;;1.50;;
52952;SDS011;38815;55.932;-3.232;2022-08-01T05:13:47;8.52;;;1.30;;
52952;SDS011;38815;55.932;-3.232;2022-08-01T05:16:12;7.88;;;1.40;;
52952;SDS011;38815;55.932;-3.232;2022-08-01T05:18:38;5.32;;;1.27;;
52952;SDS011;38815;55.932;-3.232;2022-08-01T05:21:03;5.55;;;1.40;;
52952;SDS011;38815;55.932;-3.232;2022-08-01T05:23:28;10.38;;;1.60;;
52952;SDS011;38815;55.932;-3.232;2022-08-01T05:25:54;6.93;;;1.30;;
52952;SDS011;38815;55.932;-3.232;2022-08-01T05:28:19;6.60;;;1.73;;
52952;SDS011;38815;55.932;-3.232;2022-08-01T05:30:45;6.22;;;1.38;;
52952;SDS011;38815;55.932;-3.232;2022-08-01T05:33:10;7.10;;;1.75;;
52952;SDS011;38815;55.932;-3.232;2022-08-01T05:35:36;9.93;;;1.75;;
52952;SDS011;38815;55.932;-3.232;2022-08-01T05:38:01;8.25;;;1.30;;
52952;SDS011;38815;55.932;-3.232;2022-08-01T05:40:27;6.80;;;1.55;;
52952;SDS011;38815;55.932;-3.232;2022-08-01T05:42:52;7.53;;;1.65;;
52952;SDS011;38815;55.932;-3.232;2022-08-01T05:45:18;9.13;;;1.35;;
52952;SDS011;38815;55.932;-3.232;2022-08-01T05:47:43;6.13;;;1.35;;
52952;SDS011;38815;55.932;-3.232;2022-08-01T05:50:09;6.45;;;1.50;;
52952;SDS011;38815;55.932;-3.232;2022-08-01T05:52:34;7.97;;;1.50;;
52952;SDS011;38815;55.932;-3.232;2022-08-01T05:54:59;10.63;;;1.73;;
52952;SDS011;38815;55.932;-3.232;2022-08-01T05:57:25;7.57;;;1.48;;
52952;SDS011;38815;55.932;-3.232;2022-08-01T05:59:50;7.45;;;1.67;;
52952;SDS011;38815;55.932;-3.232;2022-08-01T06:02:16;10.55;;;1.80;;
52952;SDS011;38815;55.932;-3.232;2022-08-01T06:04:41;9.02;;;1.77;;
52952;SDS011;38815;55.932;-3.232;2022-08-01T06:07:06;7.15;;;1.20;;
52952;SDS011;38815;55.932;-3.232;2022-08-01T06:09:32;8.35;;;1.30;;
52952;SDS011;38815;55.932;-3.232;2022-08-01T06:11:57;10.05;;;1.48;;
52952;SDS011;38815;55.932;-3.232;2022-08-01T06:14:23;10.10;;;1.80;;
52952;SDS011;38815;55.932;-3.232;2022-08-01T06:16:48;9.20;;;1.55;;
52952;SDS011;38815;55.932;-3.232;2022-08-01T06:19:14;11.55;;;1.80;;
52952;SDS011;38815;55.932;-3.232;2022-08-01T06:21:39;7.07;;;1.25;;
52952;SDS011;38815;55.932;-3.232;2022-08-01T06:24:04;7.57;;;1.50;;
52952;SDS011;38815;55.932;-3.232;2022-08-01T06:26:30;5.30;;;1.33;;
52952;SDS011;38815;55.932;-3.232;2022-08-01T06:28:56;7.63;;;1.60;;
52952;SDS011;38815;55.932;-3.232;2022-08-01T06:31:21;8.93;;;1.80;;
52952;SDS011;38815;55.932;-3.232;2022-08-01T06:33:47;11.13;;;1.63;;
52952;SDS011;38815;55.932;-3.232;2022-08-01T06:36:12;9.07;;;2.03;;
52952;SDS011;38815;55.932;-3.232;2022-08-01T06:38:37;9.98;;;1.70;;
52952;SDS011;38815;55.932;-3.232;2022-08-01T06:41:03;8.85;;;1.70;;
52952;SDS011;38815;55.932;-3.232;2022-08-01T06:43:28;7.63;;;1.73;;
52952;SDS011;38815;55.932;-3.232;2022-08-01T06:45:54;12.75;;;1.65;;
52952;SDS011;38815;55.932;-3.232;2022-08-01T06:48:19;9.52;;;1.55;;
52952;SDS011;38815;55.932;-3.232;2022-08-01T06:50:45;8.82;;;1.48;;
52952;SDS011;38815;55.932;-3.232;2022-08-01T06:53:10;10.77;;;1.40;;
52952;SDS011;38815;55.932;-3.232;2022-08-01T06:55:36;9.13;;;1.70;;
52952;SDS011;38815;55.932;-3.232;2022-08-01T06:58:01;8.55;;;1.70;;
52952;SDS011;38815;55.932;-3.232;2022-08-01T07:00:27;6.45;;;1.45;;
52952;SDS011;38815;55.932;-3.232;2022-08-01T07:02:53;14.55;;;1.42;;
52952;SDS011;38815;55.932;-3.232;2022-08-01T07:05:20;10.10;;;1.60;;
52952;SDS011;38815;55.932;-3.232;2022-08-01T07:07:46;9.85;;;1.70;;
52952;SDS011;38815;55.932;-3.232;2022-08-01T07:10:12;6.40;;;1.30;;
52952;SDS011;38815;55.932;-3.232;2022-08-01T07:12:37;8.40;;;1.30;;
52952;SDS011;38815;55.932;-3.232;2022-08-01T07:15:04;10.43;;;1.40;;
52952;SDS011;38815;55.932;-3.232;2022-08-01T07:17:30;10.60;;;1.48;;
52952;SDS011;38815;55.932;-3.232;2022-08-01T07:19:56;9.60;;;1.42;;
52952;SDS011;38815;55.932;-3.232;2022-08-01T07:22:21;13.50;;;1.52;;
52952;SDS011;38815;55.932;-3.232;2022-08-01T07:24:47;7.68;;;1.58;;
52952;SDS011;38815;55.932;-3.232;2022-08-01T07:27:12;11.48;;;1.65;;
52952;SDS011;38815;55.932;-3.232;2022-08-01T07:29:37;15.20;;;1.35;;
52952;SDS011;38815;55.932;-3.232;2022-08-01T07:32:03;5.82;;;1.17;;
52952;SDS011;38815;55.932;-3.232;2022-08-01T07:34:28;11.07;;;1.38;;
52952;SDS011;38815;55.932;-3.232;2022-08-01T07:36:54;10.90;;;1.48;;
52952;SDS011;38815;55.932;-3.232;2022-08-01T07:39:19;7.55;;;1.45;;
52952;SDS011;38815;55.932;-3.232;2022-08-01T07:41:45;5.60;;;0.95;;
52952;SDS011;38815;55.932;-3.232;2022-08-01T07:44:11;10.30;;;1.30;;
52952;SDS011;38815;55.932;-3.232;2022-08-01T07:46:36;10.32;;;1.40;;
52952;SDS011;38815;55.932;-3.232;2022-08-01T07:49:01;10.63;;;1.65;;
52952;SDS011;38815;55.932;-3.232;2022-08-01T07:51:27;6.28;;;1.20;;
52952;SDS011;38815;55.932;-3.232;2022-08-01T07:53:52;12.10;;;1.50;;
52952;SDS011;38815;55.932;-3.232;2022-08-01T07:56:18;7.07;;;1.52;;
52952;SDS011;38815;55.932;-3.232;2022-08-01T07:58:43;7.40;;;1.42;;
52952;SDS011;38815;55.932;-3.232;2022-08-01T08:01:08;9.73;;;1.58;;
52952;SDS011;38815;55.932;-3.232;2022-08-01T08:03:34;7.40;;;1.58;;
52952;SDS011;38815;55.932;-3.232;2022-08-01T08:05:59;7.43;;;1.17;;
52952;SDS011;38815;55.932;-3.232;2022-08-01T08:08:25;6.35;;;1.27;;
52952;SDS011;38815;55.932;-3.232;2022-08-01T08:10:50;6.07;;;1.33;;
52952;SDS011;38815;55.932;-3.232;2022-08-01T08:13:16;5.88;;;1.40;;
52952;SDS011;38815;55.932;-3.232;2022-08-01T08:15:41;4.18;;;1.17;;
52952;SDS011;38815;55.932;-3.232;2022-08-01T08:18:07;8.40;;;1.67;;
52952;SDS011;38815;55.932;-3.232;2022-08-01T08:20:32;8.57;;;1.33;;
52952;SDS011;38815;55.932;-3.232;2022-08-01T08:22:57;5.47;;;1.20;;
52952;SDS011;38815;55.932;-3.232;2022-08-01T08:25:23;8.13;;;1.77;;
52952;SDS011;38815;55.932;-3.232;2022-08-01T08:27:49;6.90;;;1.30;;
52952;SDS011;38815;55.932;-3.232;2022-08-01T08:30:15;4.72;;;1.20;;
52952;SDS011;38815;55.932;-3.232;2022-08-01T08:32:41;3.47;;;1.02;;
52952;SDS011;38815;55.932;-3.232;2022-08-01T08:35:07;9.13;;;1.40;;
52952;SDS011;38815;55.932;-3.232;2022-08-01T08:37:33;4.70;;;1.15;;
52952;SDS011;38815;55.932;-3.232;2022-08-01T08:39:59;5.47;;;1.35;;
52952;SDS011;38815;55.932;-3.232;2022-08-01T08:42:24;6.57;;;1.25;;
52952;SDS011;38815;55.932;-3.232;2022-08-01T08:44:50;6.75;;;1.17;;
52952;SDS011;38815;55.932;-3.232;2022-08-01T08:47:15;5.85;;;1.30;;
52952;SDS011;38815;55.932;-3.232;2022-08-01T08:49:43;3.83;;;1.00;;
52952;SDS011;38815;55.932;-3.232;2022-08-01T08:52:09;5.38;;;1.20;;
52952;SDS011;38815;55.932;-3.232;2022-08-01T08:54:36;6.00;;;1.08;;
52952;SDS011;38815;55.932;-3.232;2022-08-01T08:57:03;6.18;;;1.00;;
52952;SDS011;38815;55.932;-3.232;2022-08-01T08:59:29;4.15;;;1.17;;
52952;SDS011;38815;55.932;-3.232;2022-08-01T09:01:56;9.13;;;1.73;;
52952;SDS011;38815;55.932;-3.232;2022-08-01T09:04:23;5.13;;;1.13;;
52952;SDS011;38815;55.932;-3.232;2022-08-01T09:06:49;8.60;;;1.13;;
52952;SDS011;38815;55.932;-3.232;2022-08-01T09:09:14;6.38;;;1.27;;
52952;SDS011;38815;55.932;-3.232;2022-08-01T09:11:40;6.20;;;1.17;;
52952;SDS011;38815;55.932;-3.232;2022-08-01T09:14:10;8.75;;;1.33;;
52952;SDS011;38815;55.932;-3.232;2022-08-01T09:16:42;4.22;;;1.05;;
52952;SDS011;38815;55.932;-3.232;2022-08-01T09:19:16;5.75;;;1.20;;
52952;SDS011;38815;55.932;-3.232;2022-08-01T09:24:22;5.38;;;1.08;;
52952;SDS011;38815;55.932;-3.232;2022-08-01T09:26:47;6.60;;;1.67;;
52952;SDS011;38815;55.932;-3.232;2022-08-01T09:29:22;3.67;;;1.20;;
52952;SDS011;38815;55.932;-3.232;2022-08-01T09:31:50;4.20;;;1.20;;
52952;SDS011;38815;55.932;-3.232;2022-08-01T09:34:24;5.75;;;1.02;;
52952;SDS011;38815;55.932;-3.232;2022-08-01T09:39:31;6.10;;;1.00;;
52952;SDS011;38815;55.932;-3.232;2022-08-01T09:41:59;5.03;;;1.30;;
52952;SDS011;38815;55.932;-3.232;2022-08-01T09:44:39;6.60;;;1.17;;
52952;SDS011;38815;55.932;-3.232;2022-08-01T09:47:09;3.00;;;0.93;;
52952;SDS011;38815;55.932;-3.232;2022-08-01T09:49:37;9.02;;;1.15;;
52952;SDS011;38815;55.932;-3.232;2022-08-01T09:52:20;4.18;;;1.27;;
52952;SDS011;38815;55.932;-3.232;2022-08-01T09:57:22;5.43;;;1.35;;
52952;SDS011;38815;55.932;-3.232;2022-08-01T09:59:52;6.80;;;1.35;;
52952;SDS011;38815;55.932;-3.232;2022-08-01T10:02:38;8.52;;;1.40;;
52952;SDS011;38815;55.932;-3.232;2022-08-01T10:05:09;6.50;;;1.15;;
52952;SDS011;38815;55.932;-3.232;2022-08-01T10:07:36;3.25;;;0.80;;
52952;SDS011;38815;55.932;-3.232;2022-08-01T10:10:20;5.53;;;0.98;;
52952;SDS011;38815;55.932;-3.232;2022-08-01T10:12:46;6.03;;;1.10;;
52952;SDS011;38815;55.932;-3.232;2022-08-01T10:15:16;6.93;;;1.80;;
52952;SDS011;38815;55.932;-3.232;2022-08-01T10:17:45;5.00;;;1.38;;
52952;SDS011;38815;55.932;-3.232;2022-08-01T10:20:15;4.67;;;1.40;;
52952;SDS011;38815;55.932;-3.232;2022-08-01T10:22:41;4.70;;;1.05;;
52952;SDS011;38815;55.932;-3.232;2022-08-01T10:25:08;4.65;;;1.05;;
52952;SDS011;38815;55.932;-3.232;2022-08-01T10:27:34;5.78;;;1.10;;
52952;SDS011;38815;55.932;-3.232;2022-08-01T10:30:03;3.90;;;1.20;;
52952;SDS011;38815;55.932;-3.232;2022-08-01T10:32:31;5.38;;;1.20;;
52952;SDS011;38815;55.932;-3.232;2022-08-01T10:34:56;6.07;;;1.13;;
52952;SDS011;38815;55.932;-3.232;2022-08-01T10:37:23;4.25;;;1.20;;
52952;SDS011;38815;55.932;-3.232;2022-08-01T10:39:50;5.18;;;1.17;;
52952;SDS011;38815;55.932;-3.232;2022-08-01T10:42:16;2.75;;;0.90;;
52952;SDS011;38815;55.932;-3.232;2022-08-01T10:44:43;5.78;;;1.23;;
52952;SDS011;38815;55.932;-3.232;2022-08-01T10:47:13;3.38;;;0.90;;
52952;SDS011;38815;55.932;-3.232;2022-08-01T10:49:43;3.47;;;1.02;;
52952;SDS011;38815;55.932;-3.232;2022-08-01T10:52:18;3.95;;;0.90;;
52952;SDS011;38815;55.932;-3.232;2022-08-01T10:54:45;3.13;;;1.20;;
52952;SDS011;38815;55.932;-3.232;2022-08-01T10:57:11;6.10;;;0.90;;
52952;SDS011;38815;55.932;-3.232;2022-08-01T10:59:50;5.70;;;1.10;;
52952;SDS011;38815;55.932;-3.232;2022-08-01T11:05:02;4.95;;;0.93;;
52952;SDS011;38815;55.932;-3.232;2022-08-01T11:12:42;6.82;;;1.25;;
52952;SDS011;38815;55.932;-3.232;2022-08-01T11:17:37;5.75;;;1.50;;
52952;SDS011;38815;55.932;-3.232;2022-08-01T11:20:10;3.25;;;1.10;;
52952;SDS011;38815;55.932;-3.232;2022-08-01T11:25:25;6.60;;;1.27;;
52952;SDS011;38815;55.932;-3.232;2022-08-01T11:30:51;6.55;;;1.30;;
52952;SDS011;38815;55.932;-3.232;2022-08-01T11:38:35;5.78;;;1.30;;
52952;SDS011;38815;55.932;-3.232;2022-08-01T11:49:27;5.97;;;1.33;;
52952;SDS011;38815;55.932;-3.232;2022-08-01T11:52:04;4.85;;;1.20;;
52952;SDS011;38815;55.932;-3.232;2022-08-01T11:54:31;5.60;;;1.25;;
52952;SDS011;38815;55.932;-3.232;2022-08-01T11:57:21;3.65;;;0.93;;
52952;SDS011;38815;55.932;-3.232;2022-08-01T11:59:52;5.30;;;1.25;;
52952;SDS011;38815;55.932;-3.232;2022-08-01T12:02:20;3.55;;;1.08;;
52952;SDS011;38815;55.932;-3.232;2022-08-01T12:04:48;3.80;;;1.27;;
52952;SDS011;38815;55.932;-3.232;2022-08-01T12:07:25;5.95;;;1.17;;
52952;SDS011;38815;55.932;-3.232;2022-08-01T12:09:56;3.72;;;1.15;;
52952;SDS011;38815;55.932;-3.232;2022-08-01T12:12:43;6.20;;;1.15;;
52952;SDS011;38815;55.932;-3.232;2022-08-01T12:15:09;4.00;;;0.95;;
52952;SDS011;38815;55.932;-3.232;2022-08-01T12:17:36;5.32;;;1.45;;
52952;SDS011;38815;55.932;-3.232;2022-08-01T12:20:06;7.32;;;1.20;;
52952;SDS011;38815;55.932;-3.232;2022-08-01T12:22:35;6.00;;;1.15;;
52952;SDS011;38815;55.932;-3.232;2022-08-01T12:25:08;3.50;;;1.05;;
52952;SDS011;38815;55.932;-3.232;2022-08-01T12:27:41;5.60;;;1.20;;
52952;SDS011;38815;55.932;-3.232;2022-08-01T12:30:10;6.80;;;1.23;;
52952;SDS011;38815;55.932;-3.232;2022-08-01T12:32:50;6.18;;;1.20;;
52952;SDS011;38815;55.932;-3.232;2022-08-01T12:35:20;3.47;;;0.90;;
52952;SDS011;38815;55.932;-3.232;2022-08-01T12:37:51;5.22;;;1.20;;
52952;SDS011;38815;55.932;-3.232;2022-08-01T12:40:19;4.55;;;1.10;;
52952;SDS011;38815;55.932;-3.232;2022-08-01T12:42:56;6.00;;;1.40;;
52952;SDS011;38815;55.932;-3.232;2022-08-01T12:45:25;3.10;;;0.98;;
52952;SDS011;38815;55.932;-3.232;2022-08-01T12:47:52;7.13;;;1.30;;
52952;SDS011;38815;55.932;-3.232;2022-08-01T12:50:20;6.00;;;1.17;;
52952;SDS011;38815;55.932;-3.232;2022-08-01T12:52:47;4.32;;;1.00;;
52952;SDS011;38815;55.932;-3.232;2022-08-01T12:55:18;5.40;;;1.05;;
52952;SDS011;38815;55.932;-3.232;2022-08-01T12:57:48;4.75;;;0.85;;
52952;SDS011;38815;55.932;-3.232;2022-08-01T13:02:47;3.53;;;0.80;;
52952;SDS011;38815;55.932;-3.232;2022-08-01T13:05:13;3.85;;;1.00;;
52952;SDS011;38815;55.932;-3.232;2022-08-01T13:07:40;5.22;;;1.25;;
52952;SDS011;38815;55.932;-3.232;2022-08-01T13:10:08;3.78;;;1.15;;
52952;SDS011;38815;55.932;-3.232;2022-08-01T13:12:34;6.15;;;1.25;;
52952;SDS011;38815;55.932;-3.232;2022-08-01T13:15:15;3.20;;;1.00;;
52952;SDS011;38815;55.932;-3.232;2022-08-01T13:18:21;3.67;;;1.17;;
52952;SDS011;38815;55.932;-3.232;2022-08-01T13:23:40;4.13;;;1.02;;
52952;SDS011;38815;55.932;-3.232;2022-08-01T13:26:07;3.38;;;1.00;;
52952;SDS011;38815;55.932;-3.232;2022-08-01T13:28:33;4.45;;;1.02;;
52952;SDS011;38815;55.932;-3.232;2022-08-01T13:31:06;3.20;;;1.00;;
52952;SDS011;38815;55.932;-3.232;2022-08-01T13:33:45;1.42;;;0.73;;
52952;SDS011;38815;55.932;-3.232;2022-08-01T13:36:12;2.67;;;0.88;;
52952;SDS011;38815;55.932;-3.232;2022-08-01T13:38:39;3.50;;;0.90;;
52952;SDS011;38815;55.932;-3.232;2022-08-01T13:41:24;3.45;;;0.98;;
52952;SDS011;38815;55.932;-3.232;2022-08-01T13:43:49;3.33;;;1.08;;
52952;SDS011;38815;55.932;-3.232;2022-08-01T13:46:15;2.38;;;0.90;;
52952;SDS011;38815;55.932;-3.232;2022-08-01T13:48:40;3.47;;;0.80;;
52952;SDS011;38815;55.932;-3.232;2022-08-01T13:51:06;3.70;;;1.02;;
52952;SDS011;38815;55.932;-3.232;2022-08-01T13:53:31;3.88;;;0.70;;
52952;SDS011;38815;55.932;-3.232;2022-08-01T13:55:57;2.72;;;0.80;;
52952;SDS011;38815;55.932;-3.232;2022-08-01T13:58:22;4.03;;;1.05;;
52952;SDS011;38815;55.932;-3.232;2022-08-01T14:00:48;5.68;;;1.10;;
52952;SDS011;38815;55.932;-3.232;2022-08-01T14:03:13;3.42;;;0.93;;
52952;SDS011;38815;55.932;-3.232;2022-08-01T14:05:41;4.55;;;1.08;;
52952;SDS011;38815;55.932;-3.232;2022-08-01T14:08:07;2.53;;;0.85;;
52952;SDS011;38815;55.932;-3.232;2022-08-01T14:10:33;2.72;;;1.10;;
52952;SDS011;38815;55.932;-3.232;2022-08-01T14:12:59;2.60;;;0.80;;
52952;SDS011;38815;55.932;-3.232;2022-08-01T14:15:24;4.45;;;1.02;;
52952;SDS011;38815;55.932;-3.232;2022-08-01T14:17:50;4.47;;;1.05;;
52952;SDS011;38815;55.932;-3.232;2022-08-01T14:20:16;4.28;;;0.93;;
52952;SDS011;38815;55.932;-3.232;2022-08-01T14:22:44;3.08;;;0.93;;
52952;SDS011;38815;55.932;-3.232;2022-08-01T14:25:10;4.13;;;1.02;;
52952;SDS011;38815;55.932;-3.232;2022-08-01T14:27:36;2.35;;;0.90;;
52952;SDS011;38815;55.932;-3.232;2022-08-01T14:30:02;3.75;;;0.90;;
52952;SDS011;38815;55.932;-3.232;2022-08-01T14:32:28;3.50;;;1.10;;
52952;SDS011;38815;55.932;-3.232;2022-08-01T14:34:54;2.08;;;1.00;;
52952;SDS011;38815;55.932;-3.232;2022-08-01T14:37:20;4.45;;;1.20;;
52952;SDS011;38815;55.932;-3.232;2022-08-01T14:39:46;3.55;;;1.08;;
52952;SDS011;38815;55.932;-3.232;2022-08-01T14:42:11;4.72;;;1.40;;
52952;SDS011;38815;55.932;-3.232;2022-08-01T14:44:36;4.13;;;1.20;;
52952;SDS011;38815;55.932;-3.232;2022-08-01T14:47:02;2.83;;;1.10;;
52952;SDS011;38815;55.932;-3.232;2022-08-01T14:49:27;5.95;;;1.05;;
52952;SDS011;38815;55.932;-3.232;2022-08-01T14:51:53;4.05;;;1.00;;
52952;SDS011;38815;55.932;-3.232;2022-08-01T14:54:18;4.43;;;1.00;;
52952;SDS011;38815;55.932;-3.232;2022-08-01T14:56:44;2.88;;;0.90;;
52952;SDS011;38815;55.932;-3.232;2022-08-01T14:59:09;4.43;;;1.10;;
52952;SDS011;38815;55.932;-3.232;2022-08-01T15:01:35;4.65;;;1.13;;
52952;SDS011;38815;55.932;-3.232;2022-08-01T15:04:00;7.55;;;1.45;;
52952;SDS011;38815;55.932;-3.232;2022-08-01T15:06:25;2.25;;;0.93;;
52952;SDS011;38815;55.932;-3.232;2022-08-01T15:08:51;4.28;;;1.20;;
52952;SDS011;38815;55.932;-3.232;2022-08-01T15:11:16;3.53;;;1.00;;
52952;SDS011;38815;55.932;-3.232;2022-08-01T15:13:42;3.35;;;1.00;;
52952;SDS011;38815;55.932;-3.232;2022-08-01T15:16:07;4.50;;;0.95;;
52952;SDS011;38815;55.932;-3.232;2022-08-01T15:18:33;3.03;;;1.00;;
52952;SDS011;38815;55.932;-3.232;2022-08-01T15:20:58;3.58;;;1.00;;
52952;SDS011;38815;55.932;-3.232;2022-08-01T15:23:23;6.18;;;1.20;;
52952;SDS011;38815;55.932;-3.232;2022-08-01T15:25:49;4.70;;;1.17;;
52952;SDS011;38815;55.932;-3.232;2022-08-01T15:28:14;5.32;;;1.20;;
52952;SDS011;38815;55.932;-3.232;2022-08-01T15:30:40;4.07;;;1.40;;
52952;SDS011;38815;55.932;-3.232;2022-08-01T15:33:05;5.40;;;1.30;;
52952;SDS011;38815;55.932;-3.232;2022-08-01T15:35:31;5.70;;;1.17;;